Terminal Aerodrome Forecast
Issued by NWS Lake Charles, LA

Home | Current Version | Previous Version | Text Only | Print | Product List | Glossary On
Versions: 1 2 3 4 5 6 7 8 9 10 11 12 13 14 15
000
FTUS44 KLCH 222327
TAFLFT
TAF
KLFT 222327Z 2300/2324 22005KT P6SM VCSH SCT035 SCT070 SCT110
     FM230200 VRB03KT P6SM FEW025 BKN250
     FM231400 25005KT P6SM VCTS SCT025CB BKN250 PROB30 2314/2318 2SM
      TSRA BKN025CB=

USA.gov is the U.S. government's official web portal to all federal, state and local government web resources and services.